Ardrishaig, United Kingdom
Current Conditions -  °F | °C
As of 7:20 AM on Wednesday 22 Oct 2014 (Local Time) from EGPI Reporting Station
Rain Showers Rain Showers  
Wind Chill: 11°   Ceiling: 3200
Heat Index: 11°   Visibility: 6mi
Dew Point: 10°   Wind: 22mph
Humidity: 94%   Direction: 260°W
Pressure: 30.09"   Gusts: NA
Location:  56.02°N, 5.45°W
Report Text: EGPI 220620Z AUTO 26019KT 9000 -SHRA FEW014/// BKN032/// 11/10 Q1019
Loading
Personal Weather Stations






























Interactive Weather Map
Tropical Storm Tracking
New forecast layout! Learn more

10-Day Weather Forecast

Advertisements
Track Severe Weather on mobile